Time;durP1;ratioP1;P1;durP2;ratioP2;P2;SDS_P1;SDS_P2;PMS_P1;PMS_P2;Temp;Humidity;BMP_temperature;BMP_pressure;BME280_temperature;BME280_humidity;BME280_pressure;Samples;Min_cycle;Max_cycle;Signal;HPM_P1;HPM_P2
2024/04/17 00:01:26;;;;;;;2.80;1.50;;;;;;;;;;5316836;26;20079;-81
2024/04/17 00:03:52;;;;;;;3.83;1.30;;;;;;;;;;5318614;26;20033;-79
2024/04/17 00:06:17;;;;;;;2.75;1.20;;;;;;;;;;5346856;26;20074;-81
2024/04/17 00:08:43;;;;;;;2.65;1.20;;;;;;;;;;5318678;26;20069;-80
2024/04/17 00:11:08;;;;;;;4.03;1.20;;;;;;;;;;5347023;26;20004;-80
2024/04/17 00:13:34;;;;;;;3.63;1.23;;;;;;;;;;5347092;26;20598;-80
2024/04/17 00:16:00;;;;;;;2.28;1.17;;;;;;;;;;5347739;26;20340;-79
2024/04/17 00:18:26;;;;;;;4.10;1.27;;;;;;;;;;5321804;26;19997;-80
2024/04/17 00:20:54;;;;;;;2.15;1.08;;;;;;;;;;5351015;26;19997;-80
2024/04/17 00:23:22;;;;;;;2.72;1.00;;;;;;;;;;5295167;26;20001;-80
2024/04/17 00:25:48;;;;;;;2.70;1.15;;;;;;;;;;5322931;26;19997;-80
2024/04/17 00:28:13;;;;;;;2.70;1.20;;;;;;;;;;5349498;26;20363;-80
2024/04/17 00:30:39;;;;;;;2.95;1.08;;;;;;;;;;5349194;26;20005;-81
2024/04/17 00:33:05;;;;;;;3.10;1.17;;;;;;;;;;5348168;26;20005;-79
2024/04/17 00:35:30;;;;;;;2.10;0.90;;;;;;;;;;5290486;26;19997;-80
2024/04/17 00:37:56;;;;;;;2.25;1.15;;;;;;;;;;5289973;26;20008;-80
2024/04/17 00:40:22;;;;;;;3.88;1.17;;;;;;;;;;5405945;26;20386;-80
2024/04/17 00:42:48;;;;;;;2.85;1.50;;;;;;;;;;5290247;26;20001;-80
2024/04/17 00:45:14;;;;;;;4.15;1.73;;;;;;;;;;5318319;26;20011;-80
2024/04/17 00:47:39;;;;;;;2.70;1.02;;;;;;;;;;5318091;26;20324;-79
2024/04/17 00:50:06;;;;;;;2.75;1.40;;;;;;;;;;5288903;26;20009;-78
2024/04/17 00:52:32;;;;;;;3.20;1.60;;;;;;;;;;5345734;26;20001;-80
2024/04/17 00:55:00;;;;;;;3.47;1.40;;;;;;;;;;5289361;26;20005;-80
2024/04/17 00:57:27;;;;;;;3.50;1.30;;;;;;;;;;5348516;26;20020;-78
2024/04/17 00:59:53;;;;;;;2.88;1.40;;;;;;;;;;5348959;26;20032;-80
2024/04/17 01:02:21;;;;;;;2.33;1.23;;;;;;;;;;5290987;26;20005;-80
2024/04/17 01:04:47;;;;;;;2.50;1.42;;;;;;;;;;5302798;26;20310;-80
2024/04/17 01:07:13;;;;;;;4.50;1.55;;;;;;;;;;5330702;26;20008;-79
2024/04/17 01:09:38;;;;;;;3.40;1.50;;;;;;;;;;5361100;26;20005;-79
2024/04/17 01:12:07;;;;;;;5.32;1.48;;;;;;;;;;5304093;26;20025;-81
2024/04/17 01:14:32;;;;;;;2.88;1.33;;;;;;;;;;5332890;26;20009;-78
2024/04/17 01:16:58;;;;;;;2.72;1.38;;;;;;;;;;5332813;26;20001;-80
2024/04/17 01:19:23;;;;;;;3.47;1.90;;;;;;;;;;5333229;26;20013;-80
2024/04/17 01:21:49;;;;;;;3.65;1.52;;;;;;;;;;5362961;26;20000;-79
2024/04/17 01:24:14;;;;;;;4.10;1.48;;;;;;;;;;5321985;26;20005;-80
2024/04/17 01:26:40;;;;;;;5.00;1.33;;;;;;;;;;5297488;26;19997;-79
2024/04/17 01:29:06;;;;;;;4.82;1.80;;;;;;;;;;5359633;26;20012;-79
2024/04/17 01:31:32;;;;;;;3.58;1.40;;;;;;;;;;5300427;26;20048;-78
2024/04/17 01:33:57;;;;;;;2.97;1.60;;;;;;;;;;5297454;26;20005;-81
2024/04/17 01:36:23;;;;;;;4.03;1.80;;;;;;;;;;5353366;26;20003;-78
2024/04/17 01:38:48;;;;;;;3.25;1.55;;;;;;;;;;5404053;26;20005;-78
2024/04/17 01:41:14;;;;;;;3.78;1.70;;;;;;;;;;5318003;26;20352;-80
2024/04/17 01:43:39;;;;;;;2.88;1.25;;;;;;;;;;5317833;26;20005;-80
2024/04/17 01:46:05;;;;;;;3.42;1.52;;;;;;;;;;5347379;26;20016;-78
2024/04/17 01:48:30;;;;;;;4.00;1.85;;;;;;;;;;5345657;26;20067;-80
2024/04/17 01:50:56;;;;;;;2.97;1.35;;;;;;;;;;5345058;26;20012;-78
2024/04/17 01:53:22;;;;;;;5.25;1.95;;;;;;;;;;5316486;26;20078;-79
2024/04/17 01:55:47;;;;;;;3.03;1.35;;;;;;;;;;5346692;26;20004;-80
2024/04/17 01:58:13;;;;;;;3.17;1.52;;;;;;;;;;5288976;26;20001;-80
2024/04/17 02:00:38;;;;;;;3.03;1.83;;;;;;;;;;5318005;26;19997;-80
2024/04/17 02:03:04;;;;;;;4.00;1.70;;;;;;;;;;5347609;26;20008;-80
2024/04/17 02:05:30;;;;;;;3.78;1.52;;;;;;;;;;5350659;26;20013;-79
2024/04/17 02:07:55;;;;;;;3.20;1.60;;;;;;;;;;5349766;26;20013;-79
2024/04/17 02:10:21;;;;;;;4.55;1.85;;;;;;;;;;5320284;26;20013;-79
2024/04/17 02:12:46;;;;;;;3.33;1.48;;;;;;;;;;5320607;26;20000;-80
2024/04/17 02:15:12;;;;;;;3.58;1.60;;;;;;;;;;5320654;26;20056;-80
2024/04/17 02:17:37;;;;;;;4.97;1.90;;;;;;;;;;5319803;26;20001;-79
2024/04/17 02:20:07;;;;;;;2.95;1.30;;;;;;;;;;5319526;26;20049;-80
2024/04/17 02:22:32;;;;;;;4.43;2.00;;;;;;;;;;5319745;26;20008;-79
2024/04/17 02:24:58;;;;;;;3.17;1.50;;;;;;;;;;5348190;26;20001;-79
2024/04/17 02:27:23;;;;;;;3.10;1.67;;;;;;;;;;5348658;26;20008;-80
2024/04/17 02:29:51;;;;;;;4.35;1.90;;;;;;;;;;5320255;26;20029;-78
2024/04/17 02:32:17;;;;;;;5.05;1.90;;;;;;;;;;5291496;26;20537;-80
2024/04/17 02:34:42;;;;;;;4.03;1.83;;;;;;;;;;5319990;26;20009;-79
2024/04/17 02:37:08;;;;;;;4.68;1.70;;;;;;;;;;5349985;26;20012;-79
2024/04/17 02:39:33;;;;;;;2.80;1.77;;;;;;;;;;5320973;26;20009;-79
2024/04/17 02:41:59;;;;;;;4.45;2.05;;;;;;;;;;5348917;26;20020;-78
2024/04/17 02:44:24;;;;;;;4.32;1.90;;;;;;;;;;5292664;26;20075;-80
2024/04/17 02:46:50;;;;;;;4.85;2.47;;;;;;;;;;5349311;26;20459;-79
2024/04/17 02:49:15;;;;;;;3.95;1.90;;;;;;;;;;5321116;26;20009;-80
2024/04/17 02:51:42;;;;;;;4.75;2.42;;;;;;;;;;5320525;26;20013;-80
2024/04/17 02:54:08;;;;;;;5.03;2.47;;;;;;;;;;5350514;26;20001;-80
2024/04/17 02:56:34;;;;;;;5.90;2.50;;;;;;;;;;5350838;26;19993;-80
2024/04/17 02:58:59;;;;;;;6.45;2.50;;;;;;;;;;5349585;26;20001;-79
2024/04/17 03:01:25;;;;;;;4.80;2.60;;;;;;;;;;5296612;26;19994;-80
2024/04/17 03:03:50;;;;;;;4.82;2.60;;;;;;;;;;5321385;26;20004;-79
2024/04/17 03:06:16;;;;;;;5.35;2.50;;;;;;;;;;5320468;26;19993;-78
2024/04/17 03:08:41;;;;;;;5.05;2.58;;;;;;;;;;5349150;26;20379;-80
2024/04/17 03:11:07;;;;;;;5.45;2.97;;;;;;;;;;5293474;26;20021;-78
2024/04/17 03:13:33;;;;;;;8.68;5.13;;;;;;;;;;5350939;26;20070;-79
2024/04/17 03:16:00;;;;;;;7.30;3.47;;;;;;;;;;5353917;26;20013;-82
2024/04/17 03:18:26;;;;;;;9.10;3.03;;;;;;;;;;5357473;26;20005;-80
2024/04/17 03:20:51;;;;;;;7.30;3.55;;;;;;;;;;5355192;26;20074;-80
2024/04/17 03:23:17;;;;;;;8.38;3.53;;;;;;;;;;5357886;26;20001;-80
2024/04/17 03:25:43;;;;;;;9.13;3.90;;;;;;;;;;5358065;26;19997;-80
2024/04/17 03:28:08;;;;;;;5.38;3.13;;;;;;;;;;5328626;26;20001;-80
2024/04/17 03:30:34;;;;;;;5.70;3.65;;;;;;;;;;5358740;26;20001;-79
2024/04/17 03:32:59;;;;;;;7.80;3.72;;;;;;;;;;5416990;26;19993;-79
2024/04/17 03:35:25;;;;;;;8.27;4.22;;;;;;;;;;5358913;26;20047;-79
2024/04/17 03:37:50;;;;;;;8.50;5.05;;;;;;;;;;5367557;26;20326;-79
2024/04/17 03:40:16;;;;;;;9.00;4.97;;;;;;;;;;5395798;26;20340;-80
2024/04/17 03:42:41;;;;;;;11.20;5.78;;;;;;;;;;5397666;26;19996;-80
2024/04/17 03:45:07;;;;;;;14.77;7.22;;;;;;;;;;5368414;26;20024;-79
2024/04/17 03:47:32;;;;;;;12.80;6.32;;;;;;;;;;5396134;26;20003;-79
2024/04/17 03:50:02;;;;;;;14.73;6.95;;;;;;;;;;5385426;26;20006;-79
2024/04/17 03:52:28;;;;;;;11.80;6.50;;;;;;;;;;5356225;26;20020;-80
2024/04/17 03:54:53;;;;;;;11.85;6.85;;;;;;;;;;5348787;26;19997;-80
2024/04/17 03:57:19;;;;;;;12.57;6.72;;;;;;;;;;5348336;26;20012;-77
2024/04/17 03:59:44;;;;;;;14.23;7.32;;;;;;;;;;5290763;26;20009;-78
2024/04/17 04:02:10;;;;;;;13.27;6.35;;;;;;;;;;5348522;26;20007;-81
2024/04/17 04:04:36;;;;;;;14.82;7.68;;;;;;;;;;5348061;26;19997;-79
2024/04/17 04:07:01;;;;;;;13.40;6.82;;;;;;;;;;5319730;26;20004;-82
2024/04/17 04:09:26;;;;;;;14.32;8.02;;;;;;;;;;5319562;26;20005;-79
2024/04/17 04:11:53;;;;;;;13.27;7.38;;;;;;;;;;5349062;26;20055;-79
2024/04/17 04:14:18;;;;;;;14.57;7.70;;;;;;;;;;5349976;26;20016;-79
2024/04/17 04:16:45;;;;;;;16.63;7.97;;;;;;;;;;5349019;26;19997;-80
2024/04/17 04:19:10;;;;;;;14.93;7.55;;;;;;;;;;5348990;26;20008;-80
2024/04/17 04:21:36;;;;;;;15.27;8.20;;;;;;;;;;5350849;26;20001;-80
2024/04/17 04:24:01;;;;;;;13.10;7.50;;;;;;;;;;5349611;26;20016;-80
2024/04/17 04:26:27;;;;;;;15.27;8.38;;;;;;;;;;5347735;26;20001;-79
2024/04/17 04:28:52;;;;;;;14.93;7.55;;;;;;;;;;5349396;26;19997;-79
2024/04/17 04:31:18;;;;;;;13.75;7.20;;;;;;;;;;5349721;26;20007;-79
2024/04/17 04:33:43;;;;;;;14.25;8.57;;;;;;;;;;5319640;26;20343;-80
2024/04/17 04:36:09;;;;;;;15.48;9.05;;;;;;;;;;5350665;26;20077;-80
2024/04/17 04:38:34;;;;;;;12.05;7.38;;;;;;;;;;5350010;26;20348;-80
2024/04/17 04:41:00;;;;;;;13.27;7.95;;;;;;;;;;5351498;26;20494;-80
2024/04/17 04:43:25;;;;;;;16.13;8.23;;;;;;;;;;5290516;26;20009;-80
2024/04/17 04:45:51;;;;;;;13.27;8.20;;;;;;;;;;5323244;26;20005;-79
2024/04/17 04:48:16;;;;;;;12.82;7.82;;;;;;;;;;5349261;26;20070;-80
2024/04/17 04:50:43;;;;;;;10.98;6.35;;;;;;;;;;5347685;26;20009;-80
2024/04/17 04:53:08;;;;;;;11.90;6.75;;;;;;;;;;5348812;26;20340;-81
2024/04/17 04:55:34;;;;;;;13.32;6.60;;;;;;;;;;5407369;26;20336;-78
2024/04/17 04:57:59;;;;;;;14.35;7.00;;;;;;;;;;5349603;26;20000;-80
2024/04/17 05:00:25;;;;;;;11.73;6.90;;;;;;;;;;5320284;26;20476;-81
2024/04/17 05:02:50;;;;;;;14.00;6.22;;;;;;;;;;5349248;26;19997;-79
2024/04/17 05:05:16;;;;;;;12.32;6.55;;;;;;;;;;5348176;26;20001;-79
2024/04/17 05:07:41;;;;;;;10.05;5.97;;;;;;;;;;5348131;26;20021;-78
2024/04/17 05:10:07;;;;;;;12.32;6.38;;;;;;;;;;5351055;26;20009;-78
2024/04/17 05:12:32;;;;;;;11.85;6.80;;;;;;;;;;5320256;26;20001;-79
2024/04/17 05:15:01;;;;;;;12.63;6.43;;;;;;;;;;5320895;26;20067;-80
2024/04/17 05:17:26;;;;;;;12.35;6.43;;;;;;;;;;5319415;26;20005;-80
2024/04/17 05:19:52;;;;;;;11.30;6.43;;;;;;;;;;5349677;26;20005;-79
2024/04/17 05:22:17;;;;;;;10.70;6.32;;;;;;;;;;5338881;26;20000;-78
2024/04/17 05:24:43;;;;;;;10.48;6.65;;;;;;;;;;5369761;26;20009;-81
2024/04/17 05:27:09;;;;;;;10.77;6.22;;;;;;;;;;5305462;26;20452;-79
2024/04/17 05:29:34;;;;;;;13.27;6.78;;;;;;;;;;5349734;26;20359;-78
2024/04/17 05:32:00;;;;;;;12.32;6.32;;;;;;;;;;5366466;26;20020;-81
2024/04/17 05:34:25;;;;;;;11.13;6.10;;;;;;;;;;5321431;26;20036;-78
2024/04/17 05:36:51;;;;;;;14.23;7.38;;;;;;;;;;5299343;26;20336;-82
2024/04/17 05:39:20;;;;;;;12.23;6.07;;;;;;;;;;5355598;26;20014;-83
2024/04/17 05:41:45;;;;;;;15.50;7.03;;;;;;;;;;5355009;26;20000;-81
2024/04/17 05:44:14;;;;;;;11.95;7.13;;;;;;;;;;5352166;26;20005;-80
2024/04/17 05:46:40;;;;;;;11.77;7.03;;;;;;;;;;5380173;26;20000;-81
2024/04/17 05:49:09;;;;;;;11.43;7.05;;;;;;;;;;5323250;26;20345;-81
2024/04/17 05:51:34;;;;;;;;;;;;;;;;;;5352978;26;20075;-79
2024/04/17 05:54:00;;;;;;;12.70;6.97;;;;;;;;;;5321205;26;19933;-80
2024/04/17 05:56:26;;;;;;;13.07;6.30;;;;;;;;;;5358369;26;19997;-80
2024/04/17 05:58:52;;;;;;;13.18;6.80;;;;;;;;;;5357965;26;20008;-82
2024/04/17 06:01:17;;;;;;;12.57;6.38;;;;;;;;;;5385265;26;20004;-82
2024/04/17 06:03:43;;;;;;;14.82;6.63;;;;;;;;;;5360152;26;20157;-80
2024/04/17 06:06:09;;;;;;;11.05;6.00;;;;;;;;;;5386397;26;20016;-82
2024/04/17 06:08:35;;;;;;;12.73;6.25;;;;;;;;;;5381471;26;20008;-81
2024/04/17 06:11:01;;;;;;;10.20;6.45;;;;;;;;;;5320649;26;20030;-79
2024/04/17 06:13:27;;;;;;;9.65;5.50;;;;;;;;;;5349612;26;20009;-78
2024/04/17 06:15:52;;;;;;;10.45;5.80;;;;;;;;;;5320684;26;20004;-79
2024/04/17 06:18:18;;;;;;;12.32;5.70;;;;;;;;;;5349518;26;20008;-79
2024/04/17 06:20:44;;;;;;;10.57;5.57;;;;;;;;;;5320421;26;20013;-78
2024/04/17 06:23:09;;;;;;;7.97;5.22;;;;;;;;;;5325548;26;20467;-79
2024/04/17 06:25:35;;;;;;;11.43;5.57;;;;;;;;;;5343322;26;20004;-79
2024/04/17 06:28:01;;;;;;;10.57;5.28;;;;;;;;;;5324356;26;20050;-78
2024/04/17 06:30:28;;;;;;;9.02;5.07;;;;;;;;;;5291113;26;20075;-80
2024/04/17 06:32:54;;;;;;;8.27;4.78;;;;;;;;;;5348607;26;20015;-78
2024/04/17 06:35:19;;;;;;;9.23;4.65;;;;;;;;;;5349669;26;20001;-80
2024/04/17 06:41:09;;;;;;;11.23;5.63;;;;;;;;;;5770326;21;20010;-83
2024/04/17 06:43:35;;;;;;;7.00;4.57;;;;;;;;;;5259080;27;20021;-83
2024/04/17 06:46:01;;;;;;;9.63;4.25;;;;;;;;;;5223576;27;20027;-84
2024/04/17 06:48:26;;;;;;;11.82;5.13;;;;;;;;;;5220938;27;20015;-83
2024/04/17 06:50:52;;;;;;;11.80;4.65;;;;;;;;;;5225178;27;20017;-83
2024/04/17 06:53:18;;;;;;;9.57;4.95;;;;;;;;;;5225531;27;20013;-83
2024/04/17 06:55:45;;;;;;;10.38;4.70;;;;;;;;;;5281731;27;20018;-83
2024/04/17 06:58:20;;;;;;;9.52;5.13;;;;;;;;;;5257013;27;20014;-81
2024/04/17 07:00:46;;;;;;;7.72;4.30;;;;;;;;;;5229716;27;20027;-83
2024/04/17 07:03:11;;;;;;;8.10;4.05;;;;;;;;;;5227714;27;20022;-81
2024/04/17 07:05:38;;;;;;;8.10;4.00;;;;;;;;;;5225895;27;20063;-83
2024/04/17 07:08:03;;;;;;;8.73;3.88;;;;;;;;;;5223820;27;20146;-83
2024/04/17 07:10:30;;;;;;;8.00;3.58;;;;;;;;;;5222561;27;20010;-83
2024/04/17 07:12:55;;;;;;;7.78;3.90;;;;;;;;;;5195718;27;20455;-84
2024/04/17 07:15:21;;;;;;;12.07;4.15;;;;;;;;;;5194651;27;20025;-81
2024/04/17 07:17:47;;;;;;;7.80;3.45;;;;;;;;;;5193485;27;20010;-83
2024/04/17 07:20:15;;;;;;;6.57;3.60;;;;;;;;;;5243884;27;20464;-82
2024/04/17 07:22:40;;;;;;;12.27;3.78;;;;;;;;;;5189805;27;20473;-84
2024/04/17 07:25:07;;;;;;;7.07;3.38;;;;;;;;;;5189455;27;20052;-83
2024/04/17 07:27:32;;;;;;;8.77;3.75;;;;;;;;;;5189394;27;20007;-83
2024/04/17 07:29:58;;;;;;;8.13;3.80;;;;;;;;;;5187787;27;20003;-84
2024/04/17 07:32:23;;;;;;;8.98;3.80;;;;;;;;;;5189338;27;20004;-84
2024/04/17 07:34:50;;;;;;;8.98;3.70;;;;;;;;;;5187335;27;20064;-84
2024/04/17 07:37:16;;;;;;;6.82;3.33;;;;;;;;;;5215587;27;20067;-85
2024/04/17 07:39:42;;;;;;;10.63;3.92;;;;;;;;;;5189301;27;20087;-83
2024/04/17 07:42:07;;;;;;;9.32;4.00;;;;;;;;;;5188055;27;20063;-82
2024/04/17 07:44:33;;;;;;;6.07;3.08;;;;;;;;;;5187620;27;20339;-82
2024/04/17 07:47:01;;;;;;;7.68;3.45;;;;;;;;;;5187624;27;20452;-84
2024/04/17 07:49:26;;;;;;;7.10;3.22;;;;;;;;;;5187956;27;20012;-82
2024/04/17 07:51:52;;;;;;;8.02;3.22;;;;;;;;;;5188683;27;20027;-84
2024/04/17 07:54:19;;;;;;;7.43;3.53;;;;;;;;;;5216856;27;20007;-84
2024/04/17 07:56:46;;;;;;;6.57;3.50;;;;;;;;;;5215251;27;20012;-83
2024/04/17 07:59:11;;;;;;;7.40;3.08;;;;;;;;;;5187375;27;20007;-83
2024/04/17 08:01:40;;;;;;;7.93;3.05;;;;;;;;;;5215699;27;20012;-83
2024/04/17 08:04:06;;;;;;;8.45;3.47;;;;;;;;;;5187464;27;20013;-83
2024/04/17 08:06:34;;;;;;;14.57;3.50;;;;;;;;;;5188286;27;20004;-83
2024/04/17 08:08:59;;;;;;;6.63;2.90;;;;;;;;;;5188843;27;20468;-83
2024/04/17 08:11:34;;;;;;;9.05;3.10;;;;;;;;;;5214728;27;20484;-83
2024/04/17 08:14:00;;;;;;;6.68;2.95;;;;;;;;;;5186762;27;20035;-83
2024/04/17 08:16:26;;;;;;;5.85;2.80;;;;;;;;;;5215257;27;20004;-82
2024/04/17 08:18:51;;;;;;;6.40;3.10;;;;;;;;;;5193101;27;20026;-82
2024/04/17 08:21:21;;;;;;;8.55;2.72;;;;;;;;;;5219308;27;20011;-84
2024/04/17 08:23:46;;;;;;;8.25;3.08;;;;;;;;;;5219735;27;20019;-82
2024/04/17 08:26:12;;;;;;;7.82;3.47;;;;;;;;;;5246737;27;20065;-84
2024/04/17 08:28:38;;;;;;;6.97;3.20;;;;;;;;;;5246330;27;20014;-84
2024/04/17 08:31:03;;;;;;;6.40;3.05;;;;;;;;;;5247503;27;20467;-84
2024/04/17 08:33:29;;;;;;;5.70;3.03;;;;;;;;;;5219310;27;20063;-83
2024/04/17 08:35:55;;;;;;;8.52;2.75;;;;;;;;;;5247370;27;20003;-84
2024/04/17 08:38:20;;;;;;;8.95;3.00;;;;;;;;;;5218367;27;20028;-83
2024/04/17 08:40:53;;;;;;;7.40;2.47;;;;;;;;;;5219778;27;20014;-83
2024/04/17 08:43:26;;;;;;;5.93;2.45;;;;;;;;;;5220928;27;20011;-82
2024/04/17 08:45:55;;;;;;;5.97;2.50;;;;;;;;;;5219448;27;20426;-83
2024/04/17 08:48:21;;;;;;;9.85;2.83;;;;;;;;;;5247398;27;20403;-84
2024/04/17 08:50:48;;;;;;;6.72;3.35;;;;;;;;;;5219315;27;20085;-84
2024/04/17 08:53:15;;;;;;;11.88;3.47;;;;;;;;;;5220002;27;20023;-83
2024/04/17 08:55:41;;;;;;;4.50;2.50;;;;;;;;;;5246587;27;20011;-82
2024/04/17 08:58:07;;;;;;;7.53;2.60;;;;;;;;;;5219692;27;20025;-84
2024/04/17 09:00:34;;;;;;;9.10;2.80;;;;;;;;;;5247949;27;20007;-82
2024/04/17 09:03:00;;;;;;;5.40;2.78;;;;;;;;;;5192056;27;20007;-83
2024/04/17 09:05:27;;;;;;;7.93;2.55;;;;;;;;;;5199400;27;20033;-83
2024/04/17 09:07:53;;;;;;;5.65;2.65;;;;;;;;;;5235882;27;20013;-82
2024/04/17 09:10:19;;;;;;;7.55;3.38;;;;;;;;;;5236447;27;20007;-83
2024/04/17 09:12:46;;;;;;;5.13;2.90;;;;;;;;;;5234750;27;20030;-85
2024/04/17 09:15:15;;;;;;;6.72;3.10;;;;;;;;;;5235908;27;20003;-84
2024/04/17 09:17:41;;;;;;;6.22;3.40;;;;;;;;;;5236496;27;20026;-84
2024/04/17 09:20:07;;;;;;;8.02;3.33;;;;;;;;;;5229198;27;20003;-84
2024/04/17 09:22:33;;;;;;;5.28;2.85;;;;;;;;;;5248318;27;20013;-85
2024/04/17 09:24:59;;;;;;;9.32;3.90;;;;;;;;;;5246482;27;20014;-83
2024/04/17 09:27:25;;;;;;;6.50;3.13;;;;;;;;;;5218180;27;20455;-84
2024/04/17 09:29:50;;;;;;;6.18;2.20;;;;;;;;;;5245527;27;20014;-84
2024/04/17 09:32:18;;;;;;;6.30;2.40;;;;;;;;;;5216906;27;20075;-84
2024/04/17 09:34:44;;;;;;;5.30;2.47;;;;;;;;;;5216132;27;20634;-83
2024/04/17 09:37:12;;;;;;;6.13;2.42;;;;;;;;;;5206951;27;20011;-83
2024/04/17 09:39:38;;;;;;;11.15;3.13;;;;;;;;;;5226242;27;20023;-83
2024/04/17 09:42:07;;;;;;;7.10;2.95;;;;;;;;;;5234487;27;20018;-83
2024/04/17 09:44:37;;;;;;;8.73;3.00;;;;;;;;;;5246606;27;20012;-83
2024/04/17 09:47:04;;;;;;;7.40;3.25;;;;;;;;;;5235441;27;20078;-84
2024/04/17 09:49:31;;;;;;;6.90;2.75;;;;;;;;;;5230373;27;20019;-83
2024/04/17 09:51:58;;;;;;;6.20;2.80;;;;;;;;;;5245283;27;20077;-82
2024/04/17 09:54:26;;;;;;;5.80;2.65;;;;;;;;;;5243246;27;20015;-82
2024/04/17 09:56:53;;;;;;;10.35;4.18;;;;;;;;;;5213392;27;20011;-83
2024/04/17 09:59:20;;;;;;;9.43;3.00;;;;;;;;;;5218616;27;20025;-83
2024/04/17 10:01:46;;;;;;;7.18;3.10;;;;;;;;;;5233044;27;20011;-85
2024/04/17 10:04:13;;;;;;;8.43;4.10;;;;;;;;;;5225551;27;20022;-84
2024/04/17 10:06:40;;;;;;;8.48;3.65;;;;;;;;;;5284493;27;19999;-84
2024/04/17 10:09:06;;;;;;;10.10;4.28;;;;;;;;;;5232082;27;20017;-83
2024/04/17 10:11:32;;;;;;;8.70;3.95;;;;;;;;;;5229687;27;20002;-83
2024/04/17 10:14:10;;;;;;;9.65;3.80;;;;;;;;;;5236069;27;20007;-82
2024/04/17 10:16:39;;;;;;;7.03;3.40;;;;;;;;;;5275291;27;20011;-82
2024/04/17 10:19:08;;;;;;;7.97;3.78;;;;;;;;;;5222209;27;20015;-84
2024/04/17 10:21:40;;;;;;;10.40;4.03;;;;;;;;;;5246962;27;20011;-84
2024/04/17 10:24:12;;;;;;;10.00;3.50;;;;;;;;;;5248652;27;20016;-84
2024/04/17 10:26:45;;;;;;;7.15;3.65;;;;;;;;;;5219755;27;20008;-83
2024/04/17 10:29:23;;;;;;;7.65;3.65;;;;;;;;;;5196838;27;20014;-83
2024/04/17 10:32:00;;;;;;;7.53;4.03;;;;;;;;;;5276481;27;20081;-83
2024/04/17 10:34:27;;;;;;;8.77;3.70;;;;;;;;;;5224470;27;20014;-85
2024/04/17 10:37:02;;;;;;;8.07;4.05;;;;;;;;;;5268780;27;20034;-82
2024/04/17 10:39:28;;;;;;;8.05;3.78;;;;;;;;;;5236528;27;20015;-84
2024/04/17 10:41:54;;;;;;;8.00;3.33;;;;;;;;;;5251255;27;20011;-83
2024/04/17 10:44:20;;;;;;;7.80;3.10;;;;;;;;;;5188488;27;20055;-82
2024/04/17 10:46:47;;;;;;;7.22;3.10;;;;;;;;;;5242162;27;20019;-83
2024/04/17 10:49:21;;;;;;;5.90;3.50;;;;;;;;;;5191056;27;20003;-83
2024/04/17 10:51:47;;;;;;;6.00;2.50;;;;;;;;;;5238418;27;20075;-83
2024/04/17 10:54:13;;;;;;;3.97;2.13;;;;;;;;;;5264880;26;20020;-84
2024/04/17 10:56:44;;;;;;;6.88;2.97;;;;;;;;;;5214662;27;20011;-85
2024/04/17 10:59:09;;;;;;;7.97;2.92;;;;;;;;;;5211436;27;20028;-83
2024/04/17 11:01:35;;;;;;;7.45;3.33;;;;;;;;;;5219497;27;20015;-84
2024/04/17 11:04:02;;;;;;;4.65;2.70;;;;;;;;;;5246592;27;20025;-83
2024/04/17 11:06:27;;;;;;;5.97;2.80;;;;;;;;;;5211145;27;20023;-84
2024/04/17 11:08:53;;;;;;;6.97;3.42;;;;;;;;;;5207442;27;20011;-83
2024/04/17 11:11:21;;;;;;;7.30;3.33;;;;;;;;;;5206631;27;20011;-82
2024/04/17 11:13:47;;;;;;;5.72;2.60;;;;;;;;;;5261500;27;20056;-83
2024/04/17 11:16:13;;;;;;;9.48;4.05;;;;;;;;;;5254693;27;20006;-82
2024/04/17 11:18:39;;;;;;;5.88;3.00;;;;;;;;;;5238102;27;20012;-84
2024/04/17 11:21:05;;;;;;;9.63;3.10;;;;;;;;;;5275222;27;20007;-81
2024/04/17 11:23:40;;;;;;;7.97;2.92;;;;;;;;;;5240943;27;20004;-84
2024/04/17 11:26:07;;;;;;;6.70;3.03;;;;;;;;;;5230176;27;20011;-82
2024/04/17 11:28:33;;;;;;;6.22;3.20;;;;;;;;;;5249896;27;20097;-82
2024/04/17 11:30:58;;;;;;;5.88;2.97;;;;;;;;;;5283334;27;20006;-83
2024/04/17 11:33:29;;;;;;;5.60;2.35;;;;;;;;;;5188690;27;20007;-81
2024/04/17 11:36:12;;;;;;;7.60;2.28;;;;;;;;;;5220234;27;20419;-82
2024/04/17 11:38:42;;;;;;;3.72;2.00;;;;;;;;;;5193444;27;20007;-84
2024/04/17 11:41:07;;;;;;;6.68;2.42;;;;;;;;;;5220917;27;20015;-83
2024/04/17 11:43:33;;;;;;;4.05;2.20;;;;;;;;;;5243788;27;20023;-82
2024/04/17 11:46:00;;;;;;;5.05;1.67;;;;;;;;;;5256400;27;20007;-82
2024/04/17 11:48:26;;;;;;;7.03;2.25;;;;;;;;;;5206788;27;20029;-83
2024/04/17 11:50:52;;;;;;;8.52;3.15;;;;;;;;;;5198435;27;19999;-84
2024/04/17 11:53:17;;;;;;;5.18;2.42;;;;;;;;;;5240191;27;20006;-82
2024/04/17 11:55:44;;;;;;;5.78;2.33;;;;;;;;;;5268099;27;20010;-83
2024/04/17 11:58:11;;;;;;;3.38;1.83;;;;;;;;;;5205478;27;20007;-82
2024/04/17 12:00:38;;;;;;;4.78;1.90;;;;;;;;;;5268092;26;20010;-82
2024/04/17 12:03:03;;;;;;;5.65;2.22;;;;;;;;;;5236564;27;20021;-84
2024/04/17 12:05:32;;;;;;;3.95;2.10;;;;;;;;;;5234194;27;20003;-83
2024/04/17 12:07:58;;;;;;;3.88;2.00;;;;;;;;;;5234172;27;20025;-82
2024/04/17 12:10:24;;;;;;;4.70;2.22;;;;;;;;;;5246529;27;20033;-84
2024/04/17 12:12:53;;;;;;;4.35;2.00;;;;;;;;;;5203487;27;20033;-83
2024/04/17 12:15:22;;;;;;;4.60;2.00;;;;;;;;;;5225523;27;20047;-82
2024/04/17 12:17:53;;;;;;;4.70;1.55;;;;;;;;;;5231952;27;20021;-85
2024/04/17 12:20:19;;;;;;;4.90;2.00;;;;;;;;;;5238564;27;20015;-83
2024/04/17 12:22:46;;;;;;;6.13;2.40;;;;;;;;;;5244919;27;20525;-84
2024/04/17 12:27:57;;;;;;;5.75;2.78;;;;;;;;;;5235629;27;20003;-83
2024/04/17 12:30:22;;;;;;;6.47;2.60;;;;;;;;;;5235192;27;20030;-84
2024/04/17 12:32:48;;;;;;;7.05;2.72;;;;;;;;;;5198578;27;20063;-84
2024/04/17 12:35:13;;;;;;;5.07;2.65;;;;;;;;;;5248244;27;20010;-83
2024/04/17 12:37:41;;;;;;;4.60;2.40;;;;;;;;;;5247367;27;20483;-83
2024/04/17 12:40:14;;;;;;;5.80;2.92;;;;;;;;;;5188965;27;20040;-82
2024/04/17 12:42:59;;;;;;;6.28;2.80;;;;;;;;;;5189563;27;20058;-82
2024/04/17 12:45:50;;;;;;;6.80;2.90;;;;;;;;;;5225214;27;20440;-82
2024/04/17 12:48:26;;;;;;;5.95;2.60;;;;;;;;;;5248664;27;20003;-83
2024/04/17 12:51:17;;;;;;;6.30;2.42;;;;;;;;;;5241799;27;20032;-81
2024/04/17 12:53:42;;;;;;;5.38;2.78;;;;;;;;;;5238120;27;20025;-85
2024/04/17 12:56:18;;;;;;;3.72;2.55;;;;;;;;;;5235320;27;20017;-82
2024/04/17 12:58:47;;;;;;;5.60;2.95;;;;;;;;;;5253100;27;20007;-83
2024/04/17 13:01:15;;;;;;;7.20;3.28;;;;;;;;;;5246900;27;20059;-83
2024/04/17 13:03:41;;;;;;;4.68;1.98;;;;;;;;;;5226304;27;20019;-82
2024/04/17 13:06:09;;;;;;;4.93;2.45;;;;;;;;;;5186696;27;20031;-83
2024/04/17 13:12:00;;;;;;;4.70;2.42;;;;;;;;;;5256238;27;20015;-82
2024/04/17 13:14:26;;;;;;;6.20;1.92;;;;;;;;;;5212127;27;20524;-83
2024/04/17 13:16:52;;;;;;;8.18;2.40;;;;;;;;;;5215249;27;20014;-82
2024/04/17 13:19:23;;;;;;;7.13;2.03;;;;;;;;;;5268028;27;20014;-82
2024/04/17 13:21:49;;;;;;;7.13;2.75;;;;;;;;;;5218322;27;20013;-82
2024/04/17 13:24:14;;;;;;;3.92;2.22;;;;;;;;;;5215822;27;20007;-82
2024/04/17 13:26:41;;;;;;;5.22;2.28;;;;;;;;;;5257160;27;20002;-82
2024/04/17 13:29:07;;;;;;;5.47;2.83;;;;;;;;;;5225051;27;20017;-83
2024/04/17 13:31:37;;;;;;;6.57;2.25;;;;;;;;;;5249040;27;20050;-82
2024/04/17 13:34:02;;;;;;;9.07;2.15;;;;;;;;;;5221142;27;20022;-82
2024/04/17 13:36:28;;;;;;;6.15;2.47;;;;;;;;;;5194163;27;20014;-82
2024/04/17 13:38:53;;;;;;;5.93;2.50;;;;;;;;;;5218557;27;19999;-84
2024/04/17 13:41:19;;;;;;;4.18;2.20;;;;;;;;;;5247429;27;20018;-85
2024/04/17 13:43:48;;;;;;;4.93;2.22;;;;;;;;;;5219809;27;20821;-84
2024/04/17 13:46:19;;;;;;;;;;;;;;;;;;5235735;27;20022;-85
2024/04/17 13:48:44;;;;;;;4.00;1.83;;;;;;;;;;5221381;27;19934;-83
2024/04/17 13:51:11;;;;;;;5.55;2.38;;;;;;;;;;5266696;27;20011;-84
2024/04/17 13:53:39;;;;;;;6.07;2.38;;;;;;;;;;5227355;27;20060;-85
2024/04/17 13:56:04;;;;;;;4.65;2.55;;;;;;;;;;5245455;27;20003;-82
2024/04/17 13:58:34;;;;;;;4.00;1.75;;;;;;;;;;5220984;27;20014;-83
2024/04/17 14:01:02;;;;;;;4.15;2.15;;;;;;;;;;5223190;27;20366;-84
2024/04/17 14:03:29;;;;;;;4.68;1.92;;;;;;;;;;5222765;27;20351;-83
2024/04/17 14:06:01;;;;;;;7.43;2.15;;;;;;;;;;5228064;27;20430;-82
2024/04/17 14:08:26;;;;;;;5.10;2.40;;;;;;;;;;5218844;27;20004;-83
2024/04/17 14:11:02;;;;;;;6.43;3.25;;;;;;;;;;5260976;27;20018;-83
2024/04/17 14:13:28;;;;;;;4.75;1.90;;;;;;;;;;5227656;27;20011;-84
2024/04/17 14:15:58;;;;;;;3.67;1.95;;;;;;;;;;5283100;27;20199;-83
2024/04/17 14:18:26;;;;;;;5.32;2.40;;;;;;;;;;5228874;27;20018;-83
2024/04/17 14:20:55;;;;;;;4.70;1.77;;;;;;;;;;5263314;27;20003;-83
2024/04/17 14:23:23;;;;;;;5.03;2.00;;;;;;;;;;5283060;26;20019;-83
2024/04/17 14:26:08;;;;;;;6.40;2.17;;;;;;;;;;5232599;27;19996;-85
2024/04/17 14:28:35;;;;;;;5.78;2.58;;;;;;;;;;5237976;27;20011;-84
2024/04/17 14:31:01;;;;;;;5.50;2.45;;;;;;;;;;5237665;27;20015;-84
2024/04/17 14:33:27;;;;;;;6.10;2.17;;;;;;;;;;5237457;27;19995;-84
2024/04/17 14:35:54;;;;;;;3.90;1.95;;;;;;;;;;5236748;27;20007;-84
2024/04/17 14:38:21;;;;;;;5.03;2.20;;;;;;;;;;5261923;26;19990;-84
2024/04/17 14:41:05;;;;;;;5.95;1.90;;;;;;;;;;5269658;27;19995;-84
2024/04/17 14:43:31;;;;;;;6.75;2.28;;;;;;;;;;5258371;26;19999;-85
2024/04/17 14:45:58;;;;;;;3.65;1.88;;;;;;;;;;5225642;27;20482;-82
2024/04/17 14:48:25;;;;;;;4.68;2.58;;;;;;;;;;5211081;27;20080;-85